sensor_id;sensor_type;location;lat;lon;timestamp;P1;durP1;ratioP1;P2;durP2;ratioP2
68214;SDS011;55036;52.138;5.236;2023-03-01T00:01:13;8.50;;;5.75;;
68214;SDS011;55036;52.138;5.236;2023-03-01T00:03:42;7.88;;;5.82;;
68214;SDS011;55036;52.138;5.236;2023-03-01T00:06:09;8.40;;;5.68;;
68214;SDS011;55036;52.138;5.236;2023-03-01T00:08:37;10.02;;;6.07;;
68214;SDS011;55036;52.138;5.236;2023-03-01T00:11:12;7.93;;;5.55;;
68214;SDS011;55036;52.138;5.236;2023-03-01T00:13:41;8.43;;;5.57;;
68214;SDS011;55036;52.138;5.236;2023-03-01T00:16:09;9.85;;;6.30;;
68214;SDS011;55036;52.138;5.236;2023-03-01T00:18:39;8.68;;;6.15;;
68214;SDS011;55036;52.138;5.236;2023-03-01T00:21:06;8.90;;;6.13;;
68214;SDS011;55036;52.138;5.236;2023-03-01T00:23:36;12.18;;;7.13;;
68214;SDS011;55036;52.138;5.236;2023-03-01T00:26:10;9.70;;;6.10;;
68214;SDS011;55036;52.138;5.236;2023-03-01T00:28:39;8.48;;;5.85;;
68214;SDS011;55036;52.138;5.236;2023-03-01T00:31:07;8.07;;;5.32;;
68214;SDS011;55036;52.138;5.236;2023-03-01T00:33:44;9.43;;;5.95;;
68214;SDS011;55036;52.138;5.236;2023-03-01T00:36:12;9.10;;;6.28;;
68214;SDS011;55036;52.138;5.236;2023-03-01T00:38:43;11.00;;;6.20;;
68214;SDS011;55036;52.138;5.236;2023-03-01T00:41:12;10.23;;;6.22;;
68214;SDS011;55036;52.138;5.236;2023-03-01T00:43:41;10.45;;;7.05;;
68214;SDS011;55036;52.138;5.236;2023-03-01T00:46:09;9.50;;;6.35;;
68214;SDS011;55036;52.138;5.236;2023-03-01T00:48:37;10.07;;;6.32;;
68214;SDS011;55036;52.138;5.236;2023-03-01T00:51:05;9.57;;;6.40;;
68214;SDS011;55036;52.138;5.236;2023-03-01T00:53:59;10.27;;;6.45;;
68214;SDS011;55036;52.138;5.236;2023-03-01T00:56:27;12.98;;;6.18;;
68214;SDS011;55036;52.138;5.236;2023-03-01T00:58:56;8.52;;;5.95;;
68214;SDS011;55036;52.138;5.236;2023-03-01T01:01:25;10.82;;;7.00;;
68214;SDS011;55036;52.138;5.236;2023-03-01T01:04:06;8.70;;;6.30;;
68214;SDS011;55036;52.138;5.236;2023-03-01T01:06:35;8.60;;;6.65;;
68214;SDS011;55036;52.138;5.236;2023-03-01T01:09:05;11.88;;;6.85;;
68214;SDS011;55036;52.138;5.236;2023-03-01T01:11:33;9.93;;;7.40;;
68214;SDS011;55036;52.138;5.236;2023-03-01T01:14:04;11.90;;;6.75;;
68214;SDS011;55036;52.138;5.236;2023-03-01T01:16:30;11.07;;;6.97;;
68214;SDS011;55036;52.138;5.236;2023-03-01T01:18:58;11.60;;;7.05;;
68214;SDS011;55036;52.138;5.236;2023-03-01T01:21:25;10.05;;;6.95;;
68214;SDS011;55036;52.138;5.236;2023-03-01T01:23:53;10.23;;;6.65;;
68214;SDS011;55036;52.138;5.236;2023-03-01T01:26:21;12.02;;;7.03;;
68214;SDS011;55036;52.138;5.236;2023-03-01T01:28:52;10.05;;;6.97;;
68214;SDS011;55036;52.138;5.236;2023-03-01T01:31:20;11.57;;;6.80;;
68214;SDS011;55036;52.138;5.236;2023-03-01T01:33:50;10.45;;;6.88;;
68214;SDS011;55036;52.138;5.236;2023-03-01T01:36:17;10.85;;;7.47;;
68214;SDS011;55036;52.138;5.236;2023-03-01T01:38:44;9.60;;;6.70;;
68214;SDS011;55036;52.138;5.236;2023-03-01T01:41:12;10.75;;;6.20;;
68214;SDS011;55036;52.138;5.236;2023-03-01T01:43:40;10.50;;;6.50;;
68214;SDS011;55036;52.138;5.236;2023-03-01T01:48:49;10.15;;;6.65;;
68214;SDS011;55036;52.138;5.236;2023-03-01T01:51:23;9.05;;;6.78;;
68214;SDS011;55036;52.138;5.236;2023-03-01T01:54:23;10.73;;;7.03;;
68214;SDS011;55036;52.138;5.236;2023-03-01T01:59:28;10.27;;;5.78;;
68214;SDS011;55036;52.138;5.236;2023-03-01T02:01:56;9.20;;;6.35;;
68214;SDS011;55036;52.138;5.236;2023-03-01T02:04:27;9.68;;;6.88;;
68214;SDS011;55036;52.138;5.236;2023-03-01T02:06:59;11.10;;;7.78;;
68214;SDS011;55036;52.138;5.236;2023-03-01T02:09:30;16.08;;;8.10;;
68214;SDS011;55036;52.138;5.236;2023-03-01T02:11:58;13.65;;;8.20;;
68214;SDS011;55036;52.138;5.236;2023-03-01T02:14:25;12.65;;;7.72;;
68214;SDS011;55036;52.138;5.236;2023-03-01T02:16:52;11.38;;;7.18;;
68214;SDS011;55036;52.138;5.236;2023-03-01T02:19:22;13.18;;;8.05;;
68214;SDS011;55036;52.138;5.236;2023-03-01T02:22:07;15.48;;;10.18;;
68214;SDS011;55036;52.138;5.236;2023-03-01T02:27:14;11.82;;;8.15;;
68214;SDS011;55036;52.138;5.236;2023-03-01T02:29:42;15.27;;;8.45;;
68214;SDS011;55036;52.138;5.236;2023-03-01T02:32:10;11.15;;;8.23;;
68214;SDS011;55036;52.138;5.236;2023-03-01T02:34:39;11.82;;;8.20;;
68214;SDS011;55036;52.138;5.236;2023-03-01T02:37:13;12.57;;;8.60;;
68214;SDS011;55036;52.138;5.236;2023-03-01T02:39:47;11.45;;;8.32;;
68214;SDS011;55036;52.138;5.236;2023-03-01T02:42:23;13.73;;;7.95;;
68214;SDS011;55036;52.138;5.236;2023-03-01T02:44:56;14.52;;;8.27;;
68214;SDS011;55036;52.138;5.236;2023-03-01T02:47:23;12.73;;;8.27;;
68214;SDS011;55036;52.138;5.236;2023-03-01T02:49:49;13.15;;;8.48;;
68214;SDS011;55036;52.138;5.236;2023-03-01T02:57:28;12.00;;;8.57;;
68214;SDS011;55036;52.138;5.236;2023-03-01T02:59:57;15.75;;;9.48;;
68214;SDS011;55036;52.138;5.236;2023-03-01T03:02:33;14.13;;;8.45;;
68214;SDS011;55036;52.138;5.236;2023-03-01T03:05:25;12.77;;;8.48;;
68214;SDS011;55036;52.138;5.236;2023-03-01T03:07:55;14.05;;;8.73;;
68214;SDS011;55036;52.138;5.236;2023-03-01T03:12:54;16.10;;;8.40;;
68214;SDS011;55036;52.138;5.236;2023-03-01T03:15:35;11.25;;;8.30;;
68214;SDS011;55036;52.138;5.236;2023-03-01T03:18:04;15.20;;;8.63;;
68214;SDS011;55036;52.138;5.236;2023-03-01T03:20:34;10.88;;;7.65;;
68214;SDS011;55036;52.138;5.236;2023-03-01T03:23:01;13.00;;;8.18;;
68214;SDS011;55036;52.138;5.236;2023-03-01T03:25:28;14.88;;;8.85;;
68214;SDS011;55036;52.138;5.236;2023-03-01T03:27:55;14.80;;;9.15;;
68214;SDS011;55036;52.138;5.236;2023-03-01T03:30:29;16.45;;;9.00;;
68214;SDS011;55036;52.138;5.236;2023-03-01T03:32:57;14.70;;;8.52;;
68214;SDS011;55036;52.138;5.236;2023-03-01T03:35:26;15.27;;;9.43;;
68214;SDS011;55036;52.138;5.236;2023-03-01T03:37:58;12.13;;;8.18;;
68214;SDS011;55036;52.138;5.236;2023-03-01T03:40:32;13.95;;;8.95;;
68214;SDS011;55036;52.138;5.236;2023-03-01T03:43:04;12.65;;;8.63;;
68214;SDS011;55036;52.138;5.236;2023-03-01T03:45:33;13.60;;;9.27;;
68214;SDS011;55036;52.138;5.236;2023-03-01T03:48:01;12.82;;;9.25;;
68214;SDS011;55036;52.138;5.236;2023-03-01T03:50:30;14.05;;;8.82;;
68214;SDS011;55036;52.138;5.236;2023-03-01T03:52:57;13.55;;;9.20;;
68214;SDS011;55036;52.138;5.236;2023-03-01T03:55:26;14.25;;;9.15;;
68214;SDS011;55036;52.138;5.236;2023-03-01T03:57:57;13.88;;;9.85;;
68214;SDS011;55036;52.138;5.236;2023-03-01T04:00:27;13.82;;;9.57;;
68214;SDS011;55036;52.138;5.236;2023-03-01T04:02:55;14.50;;;9.20;;
68214;SDS011;55036;52.138;5.236;2023-03-01T04:05:22;13.75;;;10.15;;
68214;SDS011;55036;52.138;5.236;2023-03-01T04:07:49;18.38;;;9.73;;
68214;SDS011;55036;52.138;5.236;2023-03-01T04:10:32;14.63;;;9.02;;
68214;SDS011;55036;52.138;5.236;2023-03-01T04:13:00;14.35;;;9.50;;
68214;SDS011;55036;52.138;5.236;2023-03-01T04:15:27;15.40;;;9.45;;
68214;SDS011;55036;52.138;5.236;2023-03-01T04:17:54;15.10;;;10.23;;
68214;SDS011;55036;52.138;5.236;2023-03-01T04:20:26;16.08;;;10.27;;
68214;SDS011;55036;52.138;5.236;2023-03-01T04:23:02;12.95;;;9.15;;
68214;SDS011;55036;52.138;5.236;2023-03-01T04:25:40;12.73;;;8.95;;
68214;SDS011;55036;52.138;5.236;2023-03-01T04:28:21;16.07;;;10.00;;
68214;SDS011;55036;52.138;5.236;2023-03-01T04:31:13;13.43;;;9.45;;
68214;SDS011;55036;52.138;5.236;2023-03-01T04:33:47;14.90;;;10.35;;
68214;SDS011;55036;52.138;5.236;2023-03-01T04:36:20;17.02;;;11.02;;
68214;SDS011;55036;52.138;5.236;2023-03-01T04:38:51;14.00;;;9.55;;
68214;SDS011;55036;52.138;5.236;2023-03-01T04:41:19;16.00;;;9.15;;
68214;SDS011;55036;52.138;5.236;2023-03-01T04:43:47;14.27;;;10.60;;
68214;SDS011;55036;52.138;5.236;2023-03-01T04:46:15;16.75;;;10.10;;
68214;SDS011;55036;52.138;5.236;2023-03-01T04:48:44;15.40;;;10.60;;
68214;SDS011;55036;52.138;5.236;2023-03-01T04:51:11;16.38;;;10.20;;
68214;SDS011;55036;52.138;5.236;2023-03-01T04:53:42;20.23;;;11.18;;
68214;SDS011;55036;52.138;5.236;2023-03-01T04:56:09;17.90;;;10.90;;
68214;SDS011;55036;52.138;5.236;2023-03-01T04:58:37;14.75;;;9.65;;
68214;SDS011;55036;52.138;5.236;2023-03-01T05:01:10;15.20;;;10.02;;
68214;SDS011;55036;52.138;5.236;2023-03-01T05:03:45;17.27;;;10.90;;
68214;SDS011;55036;52.138;5.236;2023-03-01T05:06:17;15.35;;;10.70;;
68214;SDS011;55036;52.138;5.236;2023-03-01T05:08:45;21.85;;;10.77;;
68214;SDS011;55036;52.138;5.236;2023-03-01T05:11:11;14.10;;;9.98;;
68214;SDS011;55036;52.138;5.236;2023-03-01T05:13:39;17.30;;;11.13;;
68214;SDS011;55036;52.138;5.236;2023-03-01T05:16:06;16.08;;;11.25;;
68214;SDS011;55036;52.138;5.236;2023-03-01T05:18:38;17.90;;;10.55;;
68214;SDS011;55036;52.138;5.236;2023-03-01T05:21:10;18.40;;;10.98;;
68214;SDS011;55036;52.138;5.236;2023-03-01T05:23:38;16.80;;;10.40;;
68214;SDS011;55036;52.138;5.236;2023-03-01T05:26:05;17.95;;;10.80;;
68214;SDS011;55036;52.138;5.236;2023-03-01T05:28:36;14.75;;;10.27;;
68214;SDS011;55036;52.138;5.236;2023-03-01T05:31:04;15.50;;;10.27;;
68214;SDS011;55036;52.138;5.236;2023-03-01T05:33:39;13.90;;;10.18;;
68214;SDS011;55036;52.138;5.236;2023-03-01T05:36:06;17.88;;;10.57;;
68214;SDS011;55036;52.138;5.236;2023-03-01T05:38:35;18.60;;;10.68;;
68214;SDS011;55036;52.138;5.236;2023-03-01T05:41:03;17.63;;;10.40;;
68214;SDS011;55036;52.138;5.236;2023-03-01T05:43:30;20.17;;;11.25;;
68214;SDS011;55036;52.138;5.236;2023-03-01T05:46:00;17.88;;;10.70;;
68214;SDS011;55036;52.138;5.236;2023-03-01T05:48:27;18.33;;;11.10;;
68214;SDS011;55036;52.138;5.236;2023-03-01T05:50:54;16.75;;;10.65;;
68214;SDS011;55036;52.138;5.236;2023-03-01T05:53:20;17.20;;;11.07;;
68214;SDS011;55036;52.138;5.236;2023-03-01T05:55:47;18.48;;;11.23;;
68214;SDS011;55036;52.138;5.236;2023-03-01T05:58:17;17.83;;;11.52;;
68214;SDS011;55036;52.138;5.236;2023-03-01T06:00:45;18.35;;;11.70;;
68214;SDS011;55036;52.138;5.236;2023-03-01T06:03:14;15.95;;;10.98;;
68214;SDS011;55036;52.138;5.236;2023-03-01T06:05:42;19.90;;;11.00;;
68214;SDS011;55036;52.138;5.236;2023-03-01T06:08:10;18.23;;;10.55;;
68214;SDS011;55036;52.138;5.236;2023-03-01T06:10:37;21.15;;;11.68;;
68214;SDS011;55036;52.138;5.236;2023-03-01T06:13:04;20.58;;;11.52;;
68214;SDS011;55036;52.138;5.236;2023-03-01T06:15:31;19.40;;;11.20;;
68214;SDS011;55036;52.138;5.236;2023-03-01T06:17:58;19.95;;;11.82;;
68214;SDS011;55036;52.138;5.236;2023-03-01T06:20:26;18.05;;;11.65;;
68214;SDS011;55036;52.138;5.236;2023-03-01T06:22:53;22.08;;;10.63;;
68214;SDS011;55036;52.138;5.236;2023-03-01T06:25:21;18.25;;;10.50;;
68214;SDS011;55036;52.138;5.236;2023-03-01T06:27:48;15.60;;;10.60;;
68214;SDS011;55036;52.138;5.236;2023-03-01T06:30:16;27.00;;;11.48;;
68214;SDS011;55036;52.138;5.236;2023-03-01T06:32:45;22.80;;;11.38;;
68214;SDS011;55036;52.138;5.236;2023-03-01T06:35:12;20.90;;;11.10;;
68214;SDS011;55036;52.138;5.236;2023-03-01T06:37:40;20.27;;;11.52;;
68214;SDS011;55036;52.138;5.236;2023-03-01T06:40:08;19.27;;;12.02;;
68214;SDS011;55036;52.138;5.236;2023-03-01T06:42:38;19.40;;;12.43;;
68214;SDS011;55036;52.138;5.236;2023-03-01T06:45:06;18.95;;;12.40;;
68214;SDS011;55036;52.138;5.236;2023-03-01T06:47:34;21.00;;;12.75;;
68214;SDS011;55036;52.138;5.236;2023-03-01T06:50:01;20.23;;;11.48;;
68214;SDS011;55036;52.138;5.236;2023-03-01T06:52:28;17.75;;;11.10;;
68214;SDS011;55036;52.138;5.236;2023-03-01T06:54:55;19.40;;;11.30;;
68214;SDS011;55036;52.138;5.236;2023-03-01T06:57:22;21.02;;;11.50;;
68214;SDS011;55036;52.138;5.236;2023-03-01T06:59:49;19.02;;;11.68;;
68214;SDS011;55036;52.138;5.236;2023-03-01T07:02:15;20.58;;;11.75;;
68214;SDS011;55036;52.138;5.236;2023-03-01T07:04:42;17.85;;;11.98;;
68214;SDS011;55036;52.138;5.236;2023-03-01T07:07:09;19.65;;;12.43;;
68214;SDS011;55036;52.138;5.236;2023-03-01T07:09:36;18.38;;;11.38;;
68214;SDS011;55036;52.138;5.236;2023-03-01T07:12:03;19.40;;;12.10;;
68214;SDS011;55036;52.138;5.236;2023-03-01T07:14:30;20.80;;;12.02;;
68214;SDS011;55036;52.138;5.236;2023-03-01T07:16:56;21.23;;;11.98;;
68214;SDS011;55036;52.138;5.236;2023-03-01T07:19:23;18.98;;;11.98;;
68214;SDS011;55036;52.138;5.236;2023-03-01T07:21:50;21.15;;;11.43;;
68214;SDS011;55036;52.138;5.236;2023-03-01T07:24:17;20.92;;;12.75;;
68214;SDS011;55036;52.138;5.236;2023-03-01T07:26:43;20.15;;;12.82;;
68214;SDS011;55036;52.138;5.236;2023-03-01T07:29:10;21.42;;;11.65;;
68214;SDS011;55036;52.138;5.236;2023-03-01T07:31:37;19.00;;;11.80;;
68214;SDS011;55036;52.138;5.236;2023-03-01T07:34:04;18.45;;;12.52;;
68214;SDS011;55036;52.138;5.236;2023-03-01T07:36:30;20.30;;;12.10;;
68214;SDS011;55036;52.138;5.236;2023-03-01T07:38:58;18.58;;;12.80;;
68214;SDS011;55036;52.138;5.236;2023-03-01T07:41:24;20.77;;;13.35;;
68214;SDS011;55036;52.138;5.236;2023-03-01T07:43:51;22.05;;;12.90;;
68214;SDS011;55036;52.138;5.236;2023-03-01T07:46:18;24.63;;;12.77;;
68214;SDS011;55036;52.138;5.236;2023-03-01T07:48:45;23.15;;;13.10;;
68214;SDS011;55036;52.138;5.236;2023-03-01T07:51:12;25.83;;;14.25;;
68214;SDS011;55036;52.138;5.236;2023-03-01T07:53:38;24.58;;;13.90;;
68214;SDS011;55036;52.138;5.236;2023-03-01T07:56:10;25.50;;;14.45;;
68214;SDS011;55036;52.138;5.236;2023-03-01T07:58:38;21.02;;;13.73;;
68214;SDS011;55036;52.138;5.236;2023-03-01T08:01:07;25.95;;;15.40;;
68214;SDS011;55036;52.138;5.236;2023-03-01T08:03:36;23.85;;;14.32;;
68214;SDS011;55036;52.138;5.236;2023-03-01T08:06:04;28.77;;;17.00;;
68214;SDS011;55036;52.138;5.236;2023-03-01T08:08:34;28.63;;;16.77;;
68214;SDS011;55036;52.138;5.236;2023-03-01T08:11:02;27.40;;;16.95;;
68214;SDS011;55036;52.138;5.236;2023-03-01T08:13:30;29.25;;;17.10;;
68214;SDS011;55036;52.138;5.236;2023-03-01T08:16:01;27.95;;;16.45;;
68214;SDS011;55036;52.138;5.236;2023-03-01T08:18:32;25.63;;;15.35;;
68214;SDS011;55036;52.138;5.236;2023-03-01T08:21:03;26.52;;;14.57;;
68214;SDS011;55036;52.138;5.236;2023-03-01T08:23:31;25.02;;;14.75;;
68214;SDS011;55036;52.138;5.236;2023-03-01T08:26:05;29.33;;;14.43;;
68214;SDS011;55036;52.138;5.236;2023-03-01T08:28:33;19.55;;;12.27;;
68214;SDS011;55036;52.138;5.236;2023-03-01T08:31:00;22.52;;;13.93;;
68214;SDS011;55036;52.138;5.236;2023-03-01T08:33:27;22.30;;;12.07;;
68214;SDS011;55036;52.138;5.236;2023-03-01T08:36:01;20.83;;;13.05;;
68214;SDS011;55036;52.138;5.236;2023-03-01T08:38:29;21.88;;;12.40;;
68214;SDS011;55036;52.138;5.236;2023-03-01T08:40:58;20.85;;;12.55;;
68214;SDS011;55036;52.138;5.236;2023-03-01T08:43:26;19.88;;;11.43;;
68214;SDS011;55036;52.138;5.236;2023-03-01T08:45:52;17.25;;;11.27;;
68214;SDS011;55036;52.138;5.236;2023-03-01T08:48:19;19.58;;;11.20;;
68214;SDS011;55036;52.138;5.236;2023-03-01T08:50:46;20.45;;;11.52;;
68214;SDS011;55036;52.138;5.236;2023-03-01T08:53:12;14.88;;;10.32;;
68214;SDS011;55036;52.138;5.236;2023-03-01T08:55:39;19.17;;;10.65;;
68214;SDS011;55036;52.138;5.236;2023-03-01T08:58:06;14.32;;;9.05;;
68214;SDS011;55036;52.138;5.236;2023-03-01T09:00:32;14.65;;;8.57;;
68214;SDS011;55036;52.138;5.236;2023-03-01T09:03:01;17.52;;;9.98;;
68214;SDS011;55036;52.138;5.236;2023-03-01T09:05:28;14.23;;;9.57;;
68214;SDS011;55036;52.138;5.236;2023-03-01T09:08:00;15.38;;;8.88;;
68214;SDS011;55036;52.138;5.236;2023-03-01T09:10:27;11.18;;;7.43;;
68214;SDS011;55036;52.138;5.236;2023-03-01T09:12:54;13.75;;;8.88;;
68214;SDS011;55036;52.138;5.236;2023-03-01T09:15:21;10.82;;;7.90;;
68214;SDS011;55036;52.138;5.236;2023-03-01T09:17:47;10.38;;;5.95;;
68214;SDS011;55036;52.138;5.236;2023-03-01T09:20:14;13.68;;;8.43;;
68214;SDS011;55036;52.138;5.236;2023-03-01T09:22:41;13.90;;;8.98;;
68214;SDS011;55036;52.138;5.236;2023-03-01T09:25:07;20.55;;;8.65;;
68214;SDS011;55036;52.138;5.236;2023-03-01T09:27:35;11.02;;;7.72;;
68214;SDS011;55036;52.138;5.236;2023-03-01T09:30:02;12.75;;;7.82;;
68214;SDS011;55036;52.138;5.236;2023-03-01T09:32:30;14.30;;;7.90;;
68214;SDS011;55036;52.138;5.236;2023-03-01T09:34:57;14.73;;;7.93;;
68214;SDS011;55036;52.138;5.236;2023-03-01T09:37:30;14.25;;;8.73;;
68214;SDS011;55036;52.138;5.236;2023-03-01T09:39:58;12.45;;;7.72;;
68214;SDS011;55036;52.138;5.236;2023-03-01T09:42:25;10.85;;;7.43;;
68214;SDS011;55036;52.138;5.236;2023-03-01T09:44:55;13.48;;;7.15;;
68214;SDS011;55036;52.138;5.236;2023-03-01T09:47:28;10.10;;;6.88;;
68214;SDS011;55036;52.138;5.236;2023-03-01T09:49:58;13.65;;;7.45;;
68214;SDS011;55036;52.138;5.236;2023-03-01T09:53:00;11.27;;;5.95;;
68214;SDS011;55036;52.138;5.236;2023-03-01T09:55:44;12.65;;;5.80;;
68214;SDS011;55036;52.138;5.236;2023-03-01T10:06:31;10.07;;;5.07;;
68214;SDS011;55036;52.138;5.236;2023-03-01T10:09:10;8.55;;;5.55;;
68214;SDS011;55036;52.138;5.236;2023-03-01T10:11:45;7.80;;;5.23;;
68214;SDS011;55036;52.138;5.236;2023-03-01T10:19:41;8.43;;;4.75;;
68214;SDS011;55036;52.138;5.236;2023-03-01T10:22:19;8.23;;;5.68;;
68214;SDS011;55036;52.138;5.236;2023-03-01T10:24:49;7.35;;;5.40;;
68214;SDS011;55036;52.138;5.236;2023-03-01T10:29:56;10.45;;;5.47;;
68214;SDS011;55036;52.138;5.236;2023-03-01T10:32:37;10.00;;;6.43;;
68214;SDS011;55036;52.138;5.236;2023-03-01T10:38:10;9.05;;;5.45;;
68214;SDS011;55036;52.138;5.236;2023-03-01T10:40:55;9.57;;;4.82;;
68214;SDS011;55036;52.138;5.236;2023-03-01T10:43:25;7.75;;;5.40;;
68214;SDS011;55036;52.138;5.236;2023-03-01T10:46:29;7.07;;;4.30;;
68214;SDS011;55036;52.138;5.236;2023-03-01T10:49:17;6.40;;;3.58;;
68214;SDS011;55036;52.138;5.236;2023-03-01T10:51:50;8.55;;;5.20;;
68214;SDS011;55036;52.138;5.236;2023-03-01T10:54:27;8.77;;;4.90;;
68214;SDS011;55036;52.138;5.236;2023-03-01T10:57:03;8.80;;;5.10;;
68214;SDS011;55036;52.138;5.236;2023-03-01T10:59:31;6.50;;;4.60;;
68214;SDS011;55036;52.138;5.236;2023-03-01T11:05:15;6.43;;;4.40;;
68214;SDS011;55036;52.138;5.236;2023-03-01T11:07:53;6.45;;;4.53;;
68214;SDS011;55036;52.138;5.236;2023-03-01T11:10:24;8.82;;;4.32;;
68214;SDS011;55036;52.138;5.236;2023-03-01T11:13:08;7.18;;;4.32;;
68214;SDS011;55036;52.138;5.236;2023-03-01T11:15:35;7.68;;;4.40;;
68214;SDS011;55036;52.138;5.236;2023-03-01T11:18:02;9.50;;;4.88;;
68214;SDS011;55036;52.138;5.236;2023-03-01T11:20:39;8.20;;;5.00;;
68214;SDS011;55036;52.138;5.236;2023-03-01T11:23:09;10.48;;;4.68;;
68214;SDS011;55036;52.138;5.236;2023-03-01T11:25:42;10.98;;;5.80;;
68214;SDS011;55036;52.138;5.236;2023-03-01T11:28:21;8.82;;;4.60;;
68214;SDS011;55036;52.138;5.236;2023-03-01T11:38:41;6.13;;;2.90;;
68214;SDS011;55036;52.138;5.236;2023-03-01T11:48:52;9.73;;;3.85;;
68214;SDS011;55036;52.138;5.236;2023-03-01T11:51:38;6.65;;;3.88;;
68214;SDS011;55036;52.138;5.236;2023-03-01T11:54:46;5.50;;;3.50;;
68214;SDS011;55036;52.138;5.236;2023-03-01T11:57:59;7.32;;;3.10;;
68214;SDS011;55036;52.138;5.236;2023-03-01T12:06:14;5.60;;;2.33;;
68214;SDS011;55036;52.138;5.236;2023-03-01T12:14:30;4.65;;;2.47;;
68214;SDS011;55036;52.138;5.236;2023-03-01T12:20:17;4.43;;;2.50;;
68214;SDS011;55036;52.138;5.236;2023-03-01T12:28:50;7.75;;;2.78;;
68214;SDS011;55036;52.138;5.236;2023-03-01T12:31:38;4.60;;;2.67;;
68214;SDS011;55036;52.138;5.236;2023-03-01T12:39:50;5.45;;;2.95;;
68214;SDS011;55036;52.138;5.236;2023-03-01T12:45:50;16.65;;;2.78;;
68214;SDS011;55036;52.138;5.236;2023-03-01T12:48:47;4.00;;;2.50;;
68214;SDS011;55036;52.138;5.236;2023-03-01T12:51:26;3.00;;;1.83;;
68214;SDS011;55036;52.138;5.236;2023-03-01T12:53:57;6.13;;;2.70;;
68214;SDS011;55036;52.138;5.236;2023-03-01T12:56:32;4.13;;;2.90;;
68214;SDS011;55036;52.138;5.236;2023-03-01T13:04:25;4.38;;;3.20;;
68214;SDS011;55036;52.138;5.236;2023-03-01T13:09:48;6.07;;;3.33;;
68214;SDS011;55036;52.138;5.236;2023-03-01T13:17:57;4.38;;;2.80;;
68214;SDS011;55036;52.138;5.236;2023-03-01T13:20:33;5.40;;;2.90;;
68214;SDS011;55036;52.138;5.236;2023-03-01T13:44:12;4.80;;;2.95;;
68214;SDS011;55036;52.138;5.236;2023-03-01T13:46:53;3.95;;;2.92;;
68214;SDS011;55036;52.138;5.236;2023-03-01T13:49:26;3.92;;;2.67;;
68214;SDS011;55036;52.138;5.236;2023-03-01T13:52:21;8.80;;;3.85;;
68214;SDS011;55036;52.138;5.236;2023-03-01T13:55:07;4.28;;;2.92;;
68214;SDS011;55036;52.138;5.236;2023-03-01T13:57:41;4.63;;;2.85;;
68214;SDS011;55036;52.138;5.236;2023-03-01T14:05:38;4.78;;;2.80;;
68214;SDS011;55036;52.138;5.236;2023-03-01T14:08:17;4.95;;;2.95;;
68214;SDS011;55036;52.138;5.236;2023-03-01T14:10:53;6.18;;;3.22;;
68214;SDS011;55036;52.138;5.236;2023-03-01T14:13:36;5.22;;;3.33;;
68214;SDS011;55036;52.138;5.236;2023-03-01T14:16:31;5.30;;;3.22;;
68214;SDS011;55036;52.138;5.236;2023-03-01T14:21:36;4.80;;;2.95;;
68214;SDS011;55036;52.138;5.236;2023-03-01T14:24:03;4.97;;;3.05;;
68214;SDS011;55036;52.138;5.236;2023-03-01T14:26:30;5.85;;;3.10;;
68214;SDS011;55036;52.138;5.236;2023-03-01T14:28:59;4.97;;;2.85;;
68214;SDS011;55036;52.138;5.236;2023-03-01T14:31:31;6.07;;;3.13;;
68214;SDS011;55036;52.138;5.236;2023-03-01T14:34:21;5.63;;;2.75;;
68214;SDS011;55036;52.138;5.236;2023-03-01T14:36:49;4.68;;;2.95;;
68214;SDS011;55036;52.138;5.236;2023-03-01T14:39:17;4.95;;;2.72;;
68214;SDS011;55036;52.138;5.236;2023-03-01T14:41:45;5.50;;;3.00;;
68214;SDS011;55036;52.138;5.236;2023-03-01T14:44:15;5.78;;;2.83;;
68214;SDS011;55036;52.138;5.236;2023-03-01T14:46:51;5.53;;;2.92;;
68214;SDS011;55036;52.138;5.236;2023-03-01T14:49:22;4.03;;;2.67;;
68214;SDS011;55036;52.138;5.236;2023-03-01T14:54:23;7.00;;;2.50;;
68214;SDS011;55036;52.138;5.236;2023-03-01T14:57:01;7.60;;;3.80;;
68214;SDS011;55036;52.138;5.236;2023-03-01T14:59:27;5.25;;;3.22;;
68214;SDS011;55036;52.138;5.236;2023-03-01T15:01:55;6.35;;;3.63;;
68214;SDS011;55036;52.138;5.236;2023-03-01T15:04:24;4.63;;;3.03;;
68214;SDS011;55036;52.138;5.236;2023-03-01T15:06:54;6.78;;;3.10;;
68214;SDS011;55036;52.138;5.236;2023-03-01T15:09:22;4.35;;;3.00;;
68214;SDS011;55036;52.138;5.236;2023-03-01T15:11:49;3.17;;;2.25;;
68214;SDS011;55036;52.138;5.236;2023-03-01T15:14:26;3.92;;;2.55;;
68214;SDS011;55036;52.138;5.236;2023-03-01T15:17:29;6.38;;;2.92;;
68214;SDS011;55036;52.138;5.236;2023-03-01T15:19:58;6.83;;;2.77;;
68214;SDS011;55036;52.138;5.236;2023-03-01T15:22:26;5.10;;;2.88;;
68214;SDS011;55036;52.138;5.236;2023-03-01T15:24:54;4.15;;;2.88;;
68214;SDS011;55036;52.138;5.236;2023-03-01T15:27:22;4.93;;;2.80;;
68214;SDS011;55036;52.138;5.236;2023-03-01T15:29:52;4.68;;;3.00;;
68214;SDS011;55036;52.138;5.236;2023-03-01T15:32:32;6.20;;;3.50;;
68214;SDS011;55036;52.138;5.236;2023-03-01T15:35:00;4.55;;;2.88;;
68214;SDS011;55036;52.138;5.236;2023-03-01T15:37:48;5.50;;;3.20;;
68214;SDS011;55036;52.138;5.236;2023-03-01T15:40:23;7.03;;;3.55;;
68214;SDS011;55036;52.138;5.236;2023-03-01T15:43:00;6.38;;;3.85;;
68214;SDS011;55036;52.138;5.236;2023-03-01T15:47:57;4.93;;;2.65;;
68214;SDS011;55036;52.138;5.236;2023-03-01T15:50:30;7.13;;;3.25;;
68214;SDS011;55036;52.138;5.236;2023-03-01T15:53:00;5.00;;;3.28;;
68214;SDS011;55036;52.138;5.236;2023-03-01T15:55:30;3.97;;;2.60;;
68214;SDS011;55036;52.138;5.236;2023-03-01T15:58:18;6.47;;;3.17;;
68214;SDS011;55036;52.138;5.236;2023-03-01T16:00:47;4.50;;;2.92;;
68214;SDS011;55036;52.138;5.236;2023-03-01T16:03:26;5.30;;;2.90;;
68214;SDS011;55036;52.138;5.236;2023-03-01T16:05:53;5.90;;;3.30;;
68214;SDS011;55036;52.138;5.236;2023-03-01T16:08:20;4.28;;;2.53;;
68214;SDS011;55036;52.138;5.236;2023-03-01T16:10:47;4.75;;;2.75;;
68214;SDS011;55036;52.138;5.236;2023-03-01T16:13:15;4.43;;;2.90;;
68214;SDS011;55036;52.138;5.236;2023-03-01T16:15:43;6.93;;;3.20;;
68214;SDS011;55036;52.138;5.236;2023-03-01T16:18:10;5.88;;;2.92;;
68214;SDS011;55036;52.138;5.236;2023-03-01T16:20:37;8.07;;;3.40;;
68214;SDS011;55036;52.138;5.236;2023-03-01T16:23:06;6.63;;;3.30;;
68214;SDS011;55036;52.138;5.236;2023-03-01T16:25:34;6.38;;;3.55;;
68214;SDS011;55036;52.138;5.236;2023-03-01T16:28:02;4.93;;;2.45;;
68214;SDS011;55036;52.138;5.236;2023-03-01T16:30:38;6.13;;;3.15;;
68214;SDS011;55036;52.138;5.236;2023-03-01T16:33:05;6.53;;;3.50;;
68214;SDS011;55036;52.138;5.236;2023-03-01T16:35:51;3.92;;;2.67;;
68214;SDS011;55036;52.138;5.236;2023-03-01T16:38:18;9.20;;;3.42;;
68214;SDS011;55036;52.138;5.236;2023-03-01T16:40:48;8.10;;;3.25;;
68214;SDS011;55036;52.138;5.236;2023-03-01T16:43:16;6.97;;;3.65;;
68214;SDS011;55036;52.138;5.236;2023-03-01T16:45:43;6.40;;;2.63;;
68214;SDS011;55036;52.138;5.236;2023-03-01T16:48:11;4.35;;;2.75;;
68214;SDS011;55036;52.138;5.236;2023-03-01T16:50:38;5.85;;;3.97;;
68214;SDS011;55036;52.138;5.236;2023-03-01T16:53:06;5.55;;;3.20;;
68214;SDS011;55036;52.138;5.236;2023-03-01T16:55:32;6.50;;;3.50;;
68214;SDS011;55036;52.138;5.236;2023-03-01T16:57:59;6.03;;;3.92;;
68214;SDS011;55036;52.138;5.236;2023-03-01T17:00:26;5.63;;;3.53;;
68214;SDS011;55036;52.138;5.236;2023-03-01T17:02:53;7.05;;;3.90;;
68214;SDS011;55036;52.138;5.236;2023-03-01T17:05:20;9.02;;;4.60;;
68214;SDS011;55036;52.138;5.236;2023-03-01T17:07:49;8.80;;;4.38;;
68214;SDS011;55036;52.138;5.236;2023-03-01T17:10:16;6.57;;;3.97;;